Time;durP1;ratioP1;P1;durP2;ratioP2;P2;SDS_P1;SDS_P2;PMS_P1;PMS_P2;Temp;Humidity;BMP_temperature;BMP_pressure;BME280_temperature;BME280_humidity;BME280_pressure;Samples;Min_cycle;Max_cycle;Signal;HPM_P1;HPM_P2
2023/06/14 00:01:35;;;;;;;10.00;9.30;;;17.60;99.90;;;;;;5051726;28;20659;-65
2023/06/14 00:04:01;;;;;;;9.57;8.87;;;17.60;99.90;;;;;;5051633;28;20173;-65
2023/06/14 00:06:28;;;;;;;9.77;9.03;;;17.60;99.90;;;;;;5051567;28;20312;-65
2023/06/14 00:08:54;;;;;;;11.43;8.67;;;17.60;99.90;;;;;;5051282;28;20682;-65
2023/06/14 00:11:20;;;;;;;9.13;8.43;;;17.60;99.90;;;;;;5051226;28;20187;-65
2023/06/14 00:13:46;;;;;;;8.17;7.43;;;17.50;99.90;;;;;;5051502;28;20171;-65
2023/06/14 00:16:12;;;;;;;8.07;7.40;;;17.50;99.90;;;;;;5051650;28;20175;-65
2023/06/14 00:18:38;;;;;;;10.80;8.32;;;17.40;99.90;;;;;;5050589;28;20221;-65
2023/06/14 00:21:04;;;;;;;13.10;8.35;;;17.50;99.90;;;;;;5051248;28;20426;-65
2023/06/14 00:23:29;;;;;;;10.50;8.67;;;17.40;99.90;;;;;;5051420;28;20178;-65
2023/06/14 00:25:55;;;;;;;9.48;8.68;;;17.40;99.90;;;;;;5051264;28;20171;-66
2023/06/14 00:28:21;;;;;;;9.60;8.47;;;17.30;99.90;;;;;;5051456;28;20281;-66
2023/06/14 00:30:46;;;;;;;7.93;7.23;;;17.30;99.90;;;;;;5051166;28;20171;-66
2023/06/14 00:33:12;;;;;;;8.57;7.77;;;17.20;99.90;;;;;;5051347;28;20228;-66
2023/06/14 00:35:38;;;;;;;9.13;8.43;;;17.20;99.90;;;;;;5051289;28;20182;-66
2023/06/14 00:38:04;;;;;;;10.00;9.03;;;17.10;99.90;;;;;;5050734;28;20217;-66
2023/06/14 00:40:29;;;;;;;11.93;11.07;;;17.10;99.90;;;;;;5050743;28;20632;-66
2023/06/14 00:42:55;;;;;;;8.30;7.23;;;17.00;99.90;;;;;;5051467;28;20245;-65
2023/06/14 00:45:21;;;;;;;8.50;7.87;;;17.00;99.90;;;;;;5051249;28;20179;-65
2023/06/14 00:47:47;;;;;;;9.10;8.27;;;16.90;99.90;;;;;;5051104;28;20186;-65
2023/06/14 00:50:14;;;;;;;8.93;8.13;;;16.90;99.90;;;;;;5050710;28;20175;-65
2023/06/14 00:52:40;;;;;;;8.97;8.27;;;16.90;99.90;;;;;;5051019;28;20253;-65
2023/06/14 00:55:06;;;;;;;9.13;8.33;;;16.90;99.90;;;;;;5050780;28;20182;-65
2023/06/14 00:57:31;;;;;;;9.23;8.47;;;16.90;99.90;;;;;;5051287;28;20210;-65
2023/06/14 00:59:57;;;;;;;10.07;8.57;;;16.80;99.90;;;;;;5051064;28;20512;-66
2023/06/14 01:02:24;;;;;;;8.30;7.70;;;16.80;99.90;;;;;;5050724;28;20177;-66
2023/06/14 01:04:51;;;;;;;9.20;6.97;;;16.70;99.90;;;;;;5051023;28;20303;-66
2023/06/14 01:07:44;;;;;;;8.10;7.37;;;16.60;99.90;;;;;;5050574;28;20255;-65
2023/06/14 01:10:32;;;;;;;8.50;7.60;;;16.60;99.90;;;;;;5050797;28;20838;-65
2023/06/14 01:13:32;;;;;;;8.80;8.03;;;16.60;99.90;;;;;;5050956;28;20262;-66
2023/06/14 01:15:58;;;;;;;8.80;8.07;;;16.50;99.90;;;;;;5050548;28;20175;-65
2023/06/14 01:18:25;;;;;;;9.40;8.50;;;16.50;99.90;;;;;;5050684;28;20202;-66
2023/06/14 01:20:52;;;;;;;9.50;8.73;;;16.50;99.90;;;;;;5050121;28;20683;-66
2023/06/14 01:23:20;;;;;;;9.23;8.63;;;16.40;99.90;;;;;;5050823;28;20182;-65
2023/06/14 01:25:46;;;;;;;8.67;7.97;;;16.40;99.90;;;;;;5051369;28;20225;-66
2023/06/14 01:28:16;;;;;;;8.80;7.97;;;16.40;99.90;;;;;;5050730;28;20245;-66
2023/06/14 01:30:47;;;;;;;8.80;7.33;;;16.40;99.90;;;;;;5050526;28;20276;-66
2023/06/14 01:33:18;;;;;;;9.50;8.50;;;16.40;99.90;;;;;;5050844;28;20209;-66
2023/06/14 01:35:51;;;;;;;10.00;8.40;;;16.30;99.90;;;;;;5050543;28;20631;-66
2023/06/14 01:38:23;;;;;;;10.03;9.13;;;16.30;99.90;;;;;;5050446;28;20699;-66
2023/06/14 01:40:50;;;;;;;10.47;8.57;;;16.30;99.90;;;;;;5050466;28;20539;-66
2023/06/14 01:43:17;;;;;;;11.60;9.23;;;16.20;99.90;;;;;;5050513;28;20229;-66
2023/06/14 01:45:45;;;;;;;10.10;8.73;;;16.20;99.90;;;;;;5050744;28;20194;-66
2023/06/14 01:48:12;;;;;;;8.97;8.10;;;16.10;99.90;;;;;;5051274;28;20240;-66
2023/06/14 01:50:37;;;;;;;8.60;7.80;;;16.10;99.90;;;;;;5051980;28;20175;-65
2023/06/14 01:53:06;;;;;;;8.50;7.83;;;16.10;99.90;;;;;;5054218;28;20666;-66
2023/06/14 01:55:37;;;;;;;8.93;8.13;;;16.00;99.90;;;;;;5054127;28;20181;-65
2023/06/14 01:58:03;;;;;;;8.57;7.87;;;16.00;99.90;;;;;;5053930;28;20256;-65
2023/06/14 02:00:29;;;;;;;9.30;8.53;;;16.00;99.90;;;;;;5053510;28;20182;-65
2023/06/14 02:02:55;;;;;;;8.83;8.17;;;16.00;99.90;;;;;;5053703;28;20262;-66
2023/06/14 02:05:21;;;;;;;9.90;8.93;;;15.90;99.90;;;;;;5053773;28;20278;-66
2023/06/14 02:07:47;;;;;;;11.27;10.17;;;15.90;99.90;;;;;;5053695;28;20561;-65
2023/06/14 02:10:14;;;;;;;11.33;10.43;;;15.90;99.90;;;;;;5053507;28;20182;-65
2023/06/14 02:12:39;;;;;;;11.50;8.77;;;15.80;99.90;;;;;;5053925;28;20599;-65
2023/06/14 02:15:06;;;;;;;9.57;8.77;;;15.80;99.90;;;;;;5053732;28;20178;-65
2023/06/14 02:17:32;;;;;;;10.73;9.73;;;15.70;99.90;;;;;;5053418;28;20281;-65
2023/06/14 02:19:58;;;;;;;11.20;9.90;;;15.60;99.90;;;;;;5053287;28;20274;-65
2023/06/14 02:22:23;;;;;;;10.97;10.23;;;15.60;99.90;;;;;;5053266;28;20174;-65
2023/06/14 02:24:50;;;;;;;11.20;10.20;;;15.50;99.90;;;;;;5053407;28;20171;-65
2023/06/14 02:27:15;;;;;;;9.47;8.67;;;15.50;99.90;;;;;;5053370;28;20171;-65
2023/06/14 02:29:41;;;;;;;9.40;8.60;;;15.50;99.90;;;;;;5053268;28;20167;-65
2023/06/14 02:32:07;;;;;;;9.10;8.20;;;15.50;99.90;;;;;;5053167;28;20194;-66
2023/06/14 02:34:33;;;;;;;10.10;9.07;;;15.50;99.90;;;;;;5053178;28;20265;-65
2023/06/14 02:37:00;;;;;;;9.57;8.87;;;15.50;99.90;;;;;;5053283;28;20702;-65
2023/06/14 02:39:26;;;;;;;10.37;9.57;;;15.50;99.90;;;;;;5052951;28;20203;-65
2023/06/14 02:41:51;;;;;;;9.43;8.57;;;15.40;99.90;;;;;;5052803;28;20183;-65
2023/06/14 02:44:25;;;;;;;9.93;9.03;;;15.40;99.90;;;;;;5053114;28;20182;-65
2023/06/14 02:46:51;;;;;;;9.90;9.00;;;15.30;99.90;;;;;;5053058;28;20177;-65
2023/06/14 02:49:16;;;;;;;9.60;8.60;;;15.30;99.90;;;;;;5052836;28;20245;-65
2023/06/14 02:51:42;;;;;;;8.70;7.97;;;15.30;99.90;;;;;;5052152;28;20644;-66
2023/06/14 02:54:07;;;;;;;9.50;8.70;;;15.30;99.90;;;;;;5052930;28;20178;-66
2023/06/14 02:56:33;;;;;;;9.13;8.03;;;15.30;99.90;;;;;;5052623;28;20174;-65
2023/06/14 02:59:00;;;;;;;9.70;8.83;;;15.30;99.90;;;;;;5052285;28;20556;-66
2023/06/14 03:01:34;;;;;;;9.67;8.87;;;15.30;99.90;;;;;;5052523;28;20167;-65
2023/06/14 03:04:01;;;;;;;9.83;8.93;;;15.20;99.90;;;;;;5052454;28;20317;-65
2023/06/14 03:06:30;;;;;;;10.47;9.63;;;15.20;99.90;;;;;;5052685;28;20297;-65
2023/06/14 03:09:04;;;;;;;10.93;9.53;;;15.10;99.90;;;;;;5052526;28;20280;-65
2023/06/14 03:11:30;;;;;;;9.90;8.90;;;15.10;99.90;;;;;;5051468;28;20296;-65
2023/06/14 03:13:56;;;;;;;10.33;9.23;;;15.10;99.90;;;;;;5052323;28;20178;-65
2023/06/14 03:16:24;;;;;;;10.10;9.20;;;15.00;99.90;;;;;;5034435;28;20404;-65
2023/06/14 03:18:51;;;;;;;9.67;8.83;;;15.00;99.90;;;;;;5052655;28;20594;-65
2023/06/14 03:21:17;;;;;;;12.17;8.20;;;15.00;99.90;;;;;;5034425;28;20668;-67
2023/06/14 03:23:43;;;;;;;9.23;8.53;;;15.00;99.90;;;;;;5052243;28;20170;-65
2023/06/14 03:26:09;;;;;;;10.53;9.60;;;15.00;99.90;;;;;;5051961;28;20173;-66
2023/06/14 03:28:34;;;;;;;9.40;8.60;;;15.00;99.90;;;;;;5051817;28;20198;-65
2023/06/14 03:31:01;;;;;;;9.83;8.93;;;15.00;99.90;;;;;;5052111;28;20179;-66
2023/06/14 03:33:27;;;;;;;10.00;8.97;;;15.10;99.90;;;;;;5052070;28;20684;-65
2023/06/14 03:35:52;;;;;;;8.73;7.97;;;15.10;99.90;;;;;;5052124;28;20189;-66
2023/06/14 03:38:18;;;;;;;9.70;8.77;;;15.10;99.90;;;;;;5051683;28;20215;-66
2023/06/14 03:40:44;;;;;;;9.47;8.63;;;15.10;99.90;;;;;;5051411;28;20545;-65
2023/06/14 03:43:10;;;;;;;10.30;9.40;;;15.10;99.90;;;;;;5052041;28;20197;-65
2023/06/14 03:45:36;;;;;;;9.47;8.53;;;15.00;99.90;;;;;;5051804;28;20516;-65
2023/06/14 03:48:02;;;;;;;8.60;7.80;;;15.10;99.90;;;;;;5051195;28;20190;-65
2023/06/14 03:50:28;;;;;;;10.77;9.83;;;15.10;99.90;;;;;;5051572;28;20198;-65
2023/06/14 03:52:54;;;;;;;9.17;8.47;;;15.10;99.90;;;;;;5051730;28;20194;-65
2023/06/14 03:55:19;;;;;;;9.80;8.80;;;15.10;99.90;;;;;;5051470;28;20228;-66
2023/06/14 03:57:45;;;;;;;10.90;9.87;;;15.20;99.90;;;;;;5033390;28;20214;-65
2023/06/14 04:00:12;;;;;;;10.20;9.27;;;15.20;99.90;;;;;;5051448;28;20166;-66
2023/06/14 04:02:38;;;;;;;10.07;9.03;;;15.20;99.90;;;;;;5051394;28;20175;-66
2023/06/14 04:05:03;;;;;;;10.17;9.37;;;15.30;99.90;;;;;;5051588;28;20296;-66
2023/06/14 04:07:29;;;;;;;10.47;9.57;;;15.30;99.90;;;;;;5051528;28;20648;-66
2023/06/14 04:09:55;;;;;;;10.00;9.10;;;15.30;99.90;;;;;;5051060;28;20179;-66
2023/06/14 04:12:21;;;;;;;9.67;8.83;;;15.40;99.90;;;;;;5051506;28;20175;-66
2023/06/14 04:14:46;;;;;;;9.30;8.40;;;15.50;99.90;;;;;;5050700;28;20563;-66
2023/06/14 04:17:12;;;;;;;8.70;7.73;;;15.50;99.90;;;;;;5051400;28;20281;-66
2023/06/14 04:19:38;;;;;;;10.37;9.47;;;15.50;99.90;;;;;;5051248;28;20201;-66
2023/06/14 04:22:03;;;;;;;11.23;9.83;;;15.60;99.90;;;;;;5051367;28;20597;-66
2023/06/14 04:24:31;;;;;;;10.50;9.40;;;15.60;99.90;;;;;;5050347;28;20198;-66
2023/06/14 04:27:03;;;;;;;10.23;9.33;;;15.70;99.90;;;;;;5050520;28;20604;-67
2023/06/14 04:29:29;;;;;;;10.07;9.10;;;15.70;99.90;;;;;;5051193;28;20194;-65
2023/06/14 04:31:58;;;;;;;12.07;8.97;;;15.80;99.90;;;;;;5051297;28;20174;-66
2023/06/14 04:34:29;;;;;;;10.23;9.23;;;15.90;99.90;;;;;;5051266;28;20197;-65
2023/06/14 04:36:56;;;;;;;13.00;9.40;;;16.10;99.90;;;;;;5033202;28;20198;-66
2023/06/14 04:39:22;;;;;;;13.17;12.17;;;16.40;99.90;;;;;;5033693;28;20679;-66
2023/06/14 04:41:51;;;;;;;8.93;8.20;;;16.70;99.90;;;;;;5051014;28;20177;-65
2023/06/14 04:44:18;;;;;;;11.40;9.80;;;17.20;99.90;;;;;;5051267;28;20167;-65
2023/06/14 04:46:47;;;;;;;10.83;9.83;;;17.50;99.90;;;;;;5050855;28;20682;-65
2023/06/14 04:49:16;;;;;;;10.37;9.60;;;17.70;99.90;;;;;;5049902;28;20652;-65
2023/06/14 04:51:43;;;;;;;8.25;7.63;;;18.00;99.90;;;;;;5049545;28;20217;-65
2023/06/14 04:54:13;;;;;;;8.43;7.72;;;18.20;99.90;;;;;;5051050;28;20159;-65
2023/06/14 04:56:38;;;;;;;10.40;9.48;;;18.40;99.90;;;;;;5050519;28;20166;-65
2023/06/14 04:59:04;;;;;;;9.73;8.88;;;18.70;99.90;;;;;;5050673;28;20201;-65
2023/06/14 05:01:31;;;;;;;9.80;8.35;;;19.00;99.90;;;;;;5050912;28;20659;-65
2023/06/14 05:03:57;;;;;;;8.30;7.57;;;19.30;99.90;;;;;;5050829;28;20170;-65
2023/06/14 05:06:23;;;;;;;8.95;8.10;;;19.50;99.90;;;;;;5050693;28;20186;-65
2023/06/14 05:08:49;;;;;;;8.38;7.57;;;19.80;99.90;;;;;;5050643;28;20202;-66
2023/06/14 05:11:16;;;;;;;7.75;7.13;;;19.90;99.90;;;;;;5050595;28;20656;-65
2023/06/14 05:13:43;;;;;;;7.65;6.93;;;20.10;99.90;;;;;;5050839;28;20591;-65
2023/06/14 05:16:09;;;;;;;8.18;7.38;;;20.20;99.90;;;;;;5050628;28;20179;-65
2023/06/14 05:18:35;;;;;;;8.38;7.38;;;20.20;99.90;;;;;;5050472;28;20219;-65
2023/06/14 05:21:01;;;;;;;8.48;7.63;;;20.20;99.90;;;;;;5050700;28;20174;-65
2023/06/14 05:23:27;;;;;;;11.35;8.55;;;20.00;99.90;;;;;;5051043;28;20175;-65
2023/06/14 05:25:52;;;;;;;9.27;8.32;;;19.90;99.90;;;;;;5052121;28;20167;-65
2023/06/14 05:28:18;;;;;;;9.35;8.40;;;19.80;99.90;;;;;;5054380;28;20233;-65
2023/06/14 05:30:44;;;;;;;10.57;8.60;;;19.70;99.90;;;;;;5053808;28;20179;-65
2023/06/14 05:33:09;;;;;;;8.57;7.57;;;19.70;99.90;;;;;;5054229;28;20540;-65
2023/06/14 05:35:35;;;;;;;8.48;7.00;;;19.70;99.90;;;;;;5054525;28;20171;-65
2023/06/14 05:38:01;;;;;;;8.88;7.30;;;19.70;99.90;;;;;;5054100;28;20558;-65
2023/06/14 05:40:26;;;;;;;8.32;7.57;;;19.90;99.90;;;;;;5054149;28;20163;-65
2023/06/14 05:42:52;;;;;;;13.45;7.18;;;20.30;99.90;;;;;;5036067;28;20175;-65
2023/06/14 05:45:18;;;;;;;7.50;6.88;;;20.60;99.90;;;;;;5036227;28;20182;-65
2023/06/14 05:47:43;;;;;;;8.65;8.02;;;21.10;99.90;;;;;;5053662;28;20209;-65
2023/06/14 05:50:09;;;;;;;7.60;6.80;;;21.50;99.90;;;;;;5053869;28;20182;-65
2023/06/14 05:52:36;;;;;;;8.75;5.85;;;22.00;99.90;;;;;;5052978;28;20649;-65
2023/06/14 05:55:03;;;;;;;8.05;5.45;;;22.40;99.90;;;;;;5053387;28;20172;-66
2023/06/14 05:57:28;;;;;;;8.45;5.25;;;22.60;99.90;;;;;;5053606;28;20749;-65
2023/06/14 05:59:54;;;;;;;9.68;5.47;;;22.90;99.90;;;;;;5053463;28;20179;-65
2023/06/14 06:02:20;;;;;;;5.57;5.18;;;23.20;99.90;;;;;;5053960;28;20167;-66
2023/06/14 06:04:46;;;;;;;5.80;5.10;;;23.40;99.90;;;;;;5053977;28;20181;-65
2023/06/14 06:07:11;;;;;;;7.93;6.15;;;23.60;99.90;;;;;;5054310;28;20568;-65
2023/06/14 06:09:37;;;;;;;5.28;4.70;;;23.70;99.90;;;;;;5053596;28;20198;-65
2023/06/14 06:12:05;;;;;;;6.47;5.88;;;23.80;99.90;;;;;;5053307;28;20183;-65
2023/06/14 06:14:30;;;;;;;6.57;6.07;;;24.10;99.90;;;;;;5053628;28;20171;-65
2023/06/14 06:16:56;;;;;;;6.22;5.32;;;24.20;99.90;;;;;;5053643;28;20198;-65
2023/06/14 06:19:21;;;;;;;9.15;6.28;;;24.20;99.90;;;;;;5053819;28;20659;-66
2023/06/14 06:21:47;;;;;;;6.53;4.75;;;24.20;99.90;;;;;;5053548;28;20186;-65
2023/06/14 06:24:13;;;;;;;8.35;5.55;;;24.40;99.90;;;;;;5053189;28;20248;-65
2023/06/14 06:26:39;;;;;;;5.88;5.25;;;24.60;99.90;;;;;;5053317;28;20166;-65
2023/06/14 06:29:05;;;;;;;6.82;4.85;;;24.60;99.90;;;;;;5052997;28;20187;-65
2023/06/14 06:31:31;;;;;;;6.25;5.10;;;24.80;99.90;;;;;;5053591;28;20193;-65
2023/06/14 06:33:57;;;;;;;9.05;5.18;;;24.90;99.90;;;;;;5053014;28;20179;-66
2023/06/14 06:36:22;;;;;;;6.82;5.63;;;25.20;99.90;;;;;;5052757;28;20300;-66
2023/06/14 06:38:48;;;;;;;5.30;4.90;;;25.20;99.90;;;;;;5052532;28;20260;-66
2023/06/14 06:41:14;;;;;;;6.05;5.45;;;25.40;99.90;;;;;;5053124;28;20175;-66
2023/06/14 06:43:39;;;;;;;9.35;8.63;;;25.70;99.90;;;;;;5053144;28;20460;-66
2023/06/14 06:46:05;;;;;;;7.95;5.88;;;26.10;99.90;;;;;;5053017;28;20174;-66
2023/06/14 06:48:30;;;;;;;5.75;5.35;;;26.30;99.90;;;;;;5052823;28;20664;-66
2023/06/14 06:50:56;;;;;;;5.63;5.20;;;26.40;99.10;;;;;;5051946;28;20261;-66
2023/06/14 06:53:22;;;;;;;4.78;4.38;;;26.40;99.50;;;;;;5052972;28;20178;-66
2023/06/14 06:55:48;;;;;;;9.27;5.00;;;26.30;98.00;;;;;;5052769;28;20555;-66
2023/06/14 06:58:14;;;;;;;4.55;4.13;;;26.30;99.10;;;;;;5052565;28;20237;-66
2023/06/14 07:00:39;;;;;;;7.07;4.70;;;26.60;98.50;;;;;;5052312;28;20636;-66
2023/06/14 07:03:05;;;;;;;4.57;4.20;;;26.90;98.50;;;;;;5052513;28;20175;-65
2023/06/14 07:05:32;;;;;;;5.60;5.20;;;26.90;96.40;;;;;;5052820;28;20170;-66
2023/06/14 07:07:57;;;;;;;6.25;5.40;;;26.90;97.10;;;;;;5052354;28;20253;-66
2023/06/14 07:10:24;;;;;;;6.90;5.53;;;26.80;97.10;;;;;;5052534;28;20178;-66
2023/06/14 07:12:50;;;;;;;5.10;4.60;;;26.80;96.10;;;;;;5052315;28;20173;-66
2023/06/14 07:15:16;;;;;;;5.68;4.72;;;27.00;95.70;;;;;;5052537;28;20368;-66
2023/06/14 07:17:42;;;;;;;5.43;4.60;;;27.10;96.80;;;;;;5052480;28;20728;-66
2023/06/14 07:20:11;;;;;;;7.55;4.53;;;27.40;97.20;;;;;;5051845;28;20657;-66
2023/06/14 07:22:39;;;;;;;5.55;4.55;;;27.70;96.40;;;;;;5052113;28;20221;-66
2023/06/14 07:25:05;;;;;;;4.93;4.47;;;28.00;94.70;;;;;;5052144;28;20175;-66
2023/06/14 07:27:30;;;;;;;4.65;4.35;;;28.20;93.90;;;;;;5052210;28;20632;-66
2023/06/14 07:29:56;;;;;;;5.47;4.95;;;28.50;95.40;;;;;;5051802;28;20166;-66
2023/06/14 07:32:21;;;;;;;4.55;3.70;;;28.90;94.40;;;;;;5052205;28;20175;-66
2023/06/14 07:34:47;;;;;;;4.38;3.65;;;29.20;93.80;;;;;;5051641;28;20204;-66
2023/06/14 07:37:12;;;;;;;4.38;3.97;;;29.10;93.00;;;;;;5051929;28;20207;-66
2023/06/14 07:39:38;;;;;;;4.32;3.92;;;28.90;90.30;;;;;;5050471;28;20668;-66
2023/06/14 07:42:04;;;;;;;4.97;3.63;;;28.90;91.90;;;;;;5051789;28;20277;-66
2023/06/14 07:44:31;;;;;;;4.03;3.67;;;28.60;90.10;;;;;;5051864;28;20684;-66
2023/06/14 07:46:59;;;;;;;5.20;3.78;;;28.60;91.50;;;;;;5051883;28;20173;-66
2023/06/14 07:49:24;;;;;;;3.65;3.35;;;28.80;91.20;;;;;;5050573;28;20733;-66
2023/06/14 07:51:50;;;;;;;3.90;3.60;;;29.10;92.00;;;;;;5051640;28;20178;-66
2023/06/14 07:54:16;;;;;;;6.63;3.20;;;29.30;86.60;;;;;;5051765;28;20175;-66
2023/06/14 07:56:42;;;;;;;3.60;3.30;;;29.30;84.70;;;;;;5051515;28;20175;-66
2023/06/14 07:59:07;;;;;;;4.07;3.78;;;29.10;84.30;;;;;;5051356;28;20187;-66
2023/06/14 08:01:34;;;;;;;4.03;3.72;;;28.80;83.70;;;;;;5051671;28;20206;-66
2023/06/14 08:03:59;;;;;;;3.63;3.33;;;28.50;86.50;;;;;;5051649;28;20175;-66
2023/06/14 08:06:26;;;;;;;3.95;3.30;;;28.70;87.30;;;;;;5051337;28;20178;-66
2023/06/14 08:08:51;;;;;;;4.38;3.30;;;28.80;83.40;;;;;;5051247;28;20200;-66
2023/06/14 08:11:17;;;;;;;3.67;3.33;;;28.70;82.30;;;;;;5051189;28;20607;-66
2023/06/14 08:13:42;;;;;;;6.60;3.30;;;28.80;84.60;;;;;;5034523;28;20233;-66
2023/06/14 08:16:08;;;;;;;4.13;3.13;;;28.90;82.00;;;;;;5036350;28;20640;-66
2023/06/14 08:18:34;;;;;;;4.97;3.53;;;29.40;86.50;;;;;;5050200;28;20265;-66
2023/06/14 08:20:59;;;;;;;3.30;3.10;;;29.60;78.60;;;;;;5050959;28;20166;-66
2023/06/14 08:23:25;;;;;;;3.25;3.05;;;29.70;77.90;;;;;;5051581;28;20178;-66
2023/06/14 08:25:51;;;;;;;4.35;2.40;;;29.80;75.70;;;;;;5051090;28;20167;-66
2023/06/14 08:28:16;;;;;;;3.17;2.90;;;29.90;71.10;;;;;;5051022;28;20237;-66
2023/06/14 08:30:42;;;;;;;3.00;2.80;;;29.90;70.90;;;;;;5050718;28;20656;-66
2023/06/14 08:33:08;;;;;;;3.30;3.00;;;29.60;67.40;;;;;;5051023;28;20183;-66
2023/06/14 08:35:36;;;;;;;3.63;3.38;;;29.60;69.60;;;;;;5051269;28;20261;-66
2023/06/14 08:38:03;;;;;;;4.60;4.18;;;29.60;67.10;;;;;;5050822;28;20245;-66
2023/06/14 08:40:30;;;;;;;3.63;3.42;;;29.70;67.30;;;;;;5050856;28;20209;-66
2023/06/14 08:42:56;;;;;;;3.90;3.60;;;29.60;62.70;;;;;;5050643;28;20186;-66
2023/06/14 08:45:23;;;;;;;4.18;3.88;;;29.70;63.90;;;;;;5049584;28;20182;-66
2023/06/14 08:47:57;;;;;;;3.20;3.00;;;29.80;63.10;;;;;;5051208;28;20206;-66
2023/06/14 08:50:26;;;;;;;4.47;3.20;;;29.90;63.50;;;;;;5050870;28;20175;-66
2023/06/14 08:52:54;;;;;;;3.17;2.97;;;30.00;63.70;;;;;;5050971;28;20163;-66
2023/06/14 08:55:25;;;;;;;4.13;3.47;;;30.30;64.00;;;;;;5050841;28;20189;-66
2023/06/14 08:57:53;;;;;;;3.88;3.58;;;30.20;58.90;;;;;;5050869;28;20232;-66
2023/06/14 09:00:20;;;;;;;3.63;3.40;;;30.10;57.90;;;;;;5053248;28;20245;-66
2023/06/14 09:02:46;;;;;;;3.10;2.90;;;30.20;59.60;;;;;;5055040;28;20171;-66
2023/06/14 09:05:13;;;;;;;3.03;2.83;;;30.30;60.50;;;;;;5054930;28;20240;-65
2023/06/14 09:07:40;;;;;;;3.08;2.88;;;30.60;60.80;;;;;;5054980;28;20297;-66
2023/06/14 09:10:16;;;;;;;3.38;3.08;;;30.80;62.10;;;;;;5054584;28;20543;-65
2023/06/14 09:12:43;;;;;;;3.88;3.00;;;30.80;59.60;;;;;;5054694;28;20532;-66
2023/06/14 09:15:10;;;;;;;4.30;3.97;;;30.80;60.50;;;;;;5054570;28;20190;-65
2023/06/14 09:17:36;;;;;;;2.95;2.75;;;30.50;56.20;;;;;;5053094;28;20211;-66
2023/06/14 09:20:06;;;;;;;3.63;3.33;;;30.30;59.50;;;;;;5054161;28;20225;-66
2023/06/14 09:22:33;;;;;;;3.40;3.13;;;30.30;58.70;;;;;;5054548;28;20206;-66
2023/06/14 09:24:59;;;;;;;3.83;2.70;;;30.30;59.40;;;;;;5054394;28;20171;-66
2023/06/14 09:27:29;;;;;;;3.20;2.90;;;30.50;61.90;;;;;;5054605;28;20171;-66
2023/06/14 09:29:54;;;;;;;2.92;2.72;;;30.40;57.70;;;;;;5054455;28;20637;-66
2023/06/14 09:32:21;;;;;;;3.17;2.90;;;30.60;62.60;;;;;;5054498;28;20173;-65
2023/06/14 09:34:47;;;;;;;3.15;2.95;;;30.80;59.70;;;;;;5054241;28;20186;-66
2023/06/14 09:37:25;;;;;;;3.30;3.00;;;31.00;58.90;;;;;;5054451;28;20199;-66
2023/06/14 09:39:51;;;;;;;3.97;3.67;;;31.20;58.70;;;;;;5036301;28;20185;-66
2023/06/14 09:42:19;;;;;;;4.00;3.80;;;31.00;57.60;;;;;;5054660;28;20249;-66
2023/06/14 09:44:48;;;;;;;3.80;3.50;;;31.10;60.00;;;;;;5054332;28;20178;-66
2023/06/14 09:47:17;;;;;;;3.10;2.88;;;31.00;60.20;;;;;;5054526;28;20178;-66
2023/06/14 09:49:43;;;;;;;3.45;3.08;;;31.00;59.40;;;;;;5054092;28;20605;-65
2023/06/14 09:52:18;;;;;;;4.28;3.08;;;30.60;58.70;;;;;;5054228;28;20194;-65
2023/06/14 09:54:48;;;;;;;3.08;2.78;;;30.20;57.00;;;;;;5054149;28;20631;-66
2023/06/14 09:57:15;;;;;;;2.95;2.75;;;29.90;58.90;;;;;;5054080;28;20203;-66
2023/06/14 09:59:47;;;;;;;2.72;2.53;;;29.90;59.90;;;;;;5053939;28;20175;-65
2023/06/14 10:02:26;;;;;;;2.97;2.78;;;30.10;61.00;;;;;;5054258;28;20163;-66
2023/06/14 10:05:06;;;;;;;2.83;2.63;;;30.40;59.70;;;;;;5053886;28;20167;-65
2023/06/14 10:07:48;;;;;;;2.92;2.72;;;30.50;58.50;;;;;;5054269;28;20674;-66
2023/06/14 10:10:14;;;;;;;3.00;2.70;;;30.70;62.70;;;;;;5053549;28;20175;-66
2023/06/14 10:12:40;;;;;;;3.25;2.60;;;30.90;63.50;;;;;;5053059;28;20277;-66
2023/06/14 10:15:09;;;;;;;2.75;2.60;;;31.00;67.50;;;;;;5053256;28;20194;-66
2023/06/14 10:17:56;;;;;;;3.05;2.80;;;30.70;64.00;;;;;;5052154;28;20285;-65
2023/06/14 10:20:28;;;;;;;2.80;2.60;;;30.50;62.10;;;;;;5053408;28;20167;-65
2023/06/14 10:23:03;;;;;;;3.25;3.05;;;30.20;63.70;;;;;;5053734;28;20167;-65
2023/06/14 10:25:30;;;;;;;3.00;2.80;;;30.10;62.60;;;;;;5053605;28;20182;-66
2023/06/14 10:28:24;;;;;;;3.25;2.80;;;30.20;66.80;;;;;;5053242;28;20186;-66
2023/06/14 10:31:07;;;;;;;4.35;2.83;;;30.20;63.00;;;;;;5053108;28;20182;-66
2023/06/14 10:33:34;;;;;;;5.18;2.83;;;30.50;66.70;;;;;;5052782;28;20167;-66
2023/06/14 10:36:10;;;;;;;6.85;2.60;;;30.60;62.70;;;;;;5053645;28;20178;-66
2023/06/14 10:38:37;;;;;;;2.75;2.55;;;30.70;59.80;;;;;;5067080;22;20233;-85
2023/06/14 10:41:05;;;;;;;3.20;2.90;;;30.60;60.30;;;;;;5035972;28;20179;-85
2023/06/14 10:43:31;;;;;;;3.13;2.45;;;30.60;60.90;;;;;;5019985;28;20225;-85
2023/06/14 10:46:23;;;;;;;2.97;2.78;;;30.90;63.50;;;;;;5036303;28;20622;-85
2023/06/14 10:48:48;;;;;;;3.42;3.13;;;31.30;67.10;;;;;;5038565;28;20191;-85
2023/06/14 10:51:24;;;;;;;3.17;2.95;;;31.20;60.00;;;;;;4999800;28;20175;-85
2023/06/14 10:53:51;;;;;;;2.97;2.78;;;31.20;65.50;;;;;;5017479;28;20189;-86
2023/06/14 10:56:26;;;;;;;4.35;2.70;;;31.40;63.40;;;;;;5016511;28;20661;-85
2023/06/14 10:58:52;;;;;;;5.03;2.83;;;31.60;68.50;;;;;;4998976;28;20221;-85
2023/06/14 11:01:31;;;;;;;3.05;2.85;;;31.60;65.10;;;;;;5033837;28;20262;-84
2023/06/14 11:04:05;;;;;;;3.33;3.10;;;31.60;68.50;;;;;;5016169;28;20645;-85
2023/06/14 11:06:45;;;;;;;3.05;2.75;;;31.80;65.00;;;;;;5034026;28;20174;-85
2023/06/14 11:09:20;;;;;;;3.67;2.92;;;31.80;65.20;;;;;;5015930;28;20544;-86
2023/06/14 11:11:48;;;;;;;8.95;3.17;;;31.70;64.00;;;;;;5033322;28;20688;-86
2023/06/14 11:14:13;;;;;;;2.75;2.55;;;31.40;68.10;;;;;;5033434;28;20184;-85
2023/06/14 11:16:39;;;;;;;4.88;3.25;;;31.40;70.70;;;;;;5033292;28;20182;-85
2023/06/14 11:19:05;;;;;;;4.57;3.30;;;31.60;64.60;;;;;;5014903;28;20199;-84
2023/06/14 11:21:39;;;;;;;3.13;2.85;;;31.80;66.30;;;;;;5014225;28;20176;-85
2023/06/14 11:24:10;;;;;;;3.45;3.10;;;31.80;66.30;;;;;;5015404;28;20172;-85
2023/06/14 11:26:38;;;;;;;2.75;2.60;;;32.10;68.70;;;;;;5015760;28;20175;-85
2023/06/14 11:29:03;;;;;;;4.28;3.08;;;32.10;69.40;;;;;;5033255;28;20206;-84
2023/06/14 11:31:30;;;;;;;4.78;3.20;;;32.10;66.20;;;;;;5033309;28;20630;-85
2023/06/14 11:33:59;;;;;;;3.85;3.55;;;32.00;66.20;;;;;;5015649;28;20278;-85
2023/06/14 11:36:30;;;;;;;3.35;2.90;;;31.90;65.70;;;;;;5015592;28;20172;-85
2023/06/14 11:39:03;;;;;;;3.10;2.90;;;32.00;67.00;;;;;;5014978;28;20728;-85
2023/06/14 11:41:41;;;;;;;5.32;4.97;;;32.20;65.70;;;;;;5033167;28;20629;-85
2023/06/14 11:44:07;;;;;;;4.20;3.30;;;31.80;60.10;;;;;;5015692;28;20265;-85
2023/06/14 11:46:33;;;;;;;5.72;3.97;;;31.60;64.50;;;;;;5015747;28;20175;-85
2023/06/14 11:49:02;;;;;;;2.83;2.63;;;31.60;63.30;;;;;;5033044;28;20196;-85
2023/06/14 11:51:32;;;;;;;3.33;3.13;;;31.80;67.70;;;;;;5015133;28;20182;-84
2023/06/14 11:53:58;;;;;;;3.10;2.90;;;31.80;62.40;;;;;;5031288;28;20563;-85
2023/06/14 11:56:25;;;;;;;3.22;2.80;;;31.60;64.40;;;;;;5014987;28;20176;-85
2023/06/14 11:58:52;;;;;;;4.43;3.42;;;31.60;63.80;;;;;;5014521;28;20203;-84
2023/06/14 12:01:17;;;;;;;3.42;3.13;;;31.80;63.70;;;;;;5014909;28;20238;-85
2023/06/14 12:03:50;;;;;;;3.03;2.83;;;31.60;63.70;;;;;;5015178;28;20171;-85
2023/06/14 12:06:25;;;;;;;3.97;3.05;;;31.60;66.90;;;;;;5032649;28;20176;-85
2023/06/14 12:08:52;;;;;;;3.33;3.13;;;31.60;66.70;;;;;;5012465;28;20210;-84
2023/06/14 12:11:17;;;;;;;4.15;3.10;;;31.40;61.80;;;;;;4995497;28;20180;-85
2023/06/14 12:13:43;;;;;;;3.45;3.25;;;31.40;62.00;;;;;;5011776;28;20746;-85
2023/06/14 12:16:12;;;;;;;4.05;2.97;;;31.60;64.60;;;;;;4995732;28;20172;-85
2023/06/14 12:18:39;;;;;;;3.28;3.08;;;32.00;64.60;;;;;;4996080;28;20208;-86
2023/06/14 12:21:07;;;;;;;3.58;3.38;;;32.50;66.30;;;;;;5024694;28;20226;-86
2023/06/14 12:23:48;;;;;;;5.35;4.85;;;32.90;62.40;;;;;;5034095;28;20174;-86
2023/06/14 12:26:16;;;;;;;3.95;3.65;;;33.00;59.80;;;;;;5015255;28;20179;-86
2023/06/14 12:28:45;;;;;;;4.65;3.38;;;32.30;59.00;;;;;;5016170;28;20218;-86
2023/06/14 12:31:13;;;;;;;3.28;2.97;;;31.60;60.60;;;;;;5016511;28;20266;-86
2023/06/14 12:33:40;;;;;;;3.58;2.90;;;31.40;63.70;;;;;;5018387;28;20676;-86
2023/06/14 12:36:06;;;;;;;3.10;2.72;;;31.40;61.00;;;;;;5018184;28;20229;-86
2023/06/14 12:38:33;;;;;;;2.78;2.58;;;31.70;59.60;;;;;;5037824;28;20642;-86
2023/06/14 12:40:58;;;;;;;3.30;3.10;;;31.30;61.20;;;;;;5021611;28;20238;-86
2023/06/14 12:43:24;;;;;;;3.55;3.35;;;31.20;59.00;;;;;;5023175;28;20218;-86
2023/06/14 12:45:50;;;;;;;2.92;2.70;;;31.70;60.30;;;;;;5022741;28;20178;-86
2023/06/14 12:48:16;;;;;;;3.03;2.83;;;31.60;61.40;;;;;;5027056;28;20677;-86